createdAt,value
2019-03-27T00:02:18.679Z,6.37
2019-03-27T00:05:06.904Z,6.43
2019-03-27T00:07:55.201Z,7.60
2019-03-27T00:10:43.324Z,7.77
2019-03-27T00:13:31.218Z,7.03
2019-03-27T00:16:19.348Z,7.63
2019-03-27T00:19:07.254Z,8.20
2019-03-27T00:21:54.992Z,7.70
2019-03-27T00:24:43.010Z,8.17
2019-03-27T00:27:31.064Z,8.00
2019-03-27T00:30:19.336Z,8.33
2019-03-27T00:33:08.073Z,7.50
2019-03-27T00:35:56.702Z,9.43
2019-03-27T00:38:45.156Z,7.97
2019-03-27T00:41:33.157Z,7.57
2019-03-27T00:44:21.521Z,8.80
2019-03-27T00:47:09.509Z,8.57
2019-03-27T00:49:57.518Z,7.50
2019-03-27T00:52:45.694Z,7.50
2019-03-27T00:55:33.774Z,8.10
2019-03-27T00:58:21.966Z,8.43
2019-03-27T01:01:12.463Z,7.00
2019-03-27T01:04:00.776Z,6.87
2019-03-27T01:06:50.910Z,7.13
2019-03-27T01:09:38.742Z,7.20
2019-03-27T01:12:26.609Z,7.47
2019-03-27T01:15:15.065Z,7.80
2019-03-27T01:18:03.167Z,6.70
2019-03-27T01:20:51.375Z,7.53
2019-03-27T01:23:39.394Z,6.90
2019-03-27T01:26:27.638Z,8.17
2019-03-27T01:29:15.745Z,6.80
2019-03-27T01:32:03.776Z,8.20
2019-03-27T01:34:51.710Z,8.17
2019-03-27T01:37:39.426Z,8.37
2019-03-27T01:40:27.696Z,9.20
2019-03-27T01:43:15.662Z,7.97
2019-03-27T01:46:03.966Z,8.13
2019-03-27T01:48:52.045Z,8.97
2019-03-27T01:51:40.091Z,7.57
2019-03-27T01:54:27.961Z,9.13
2019-03-27T01:57:15.931Z,8.83
2019-03-27T02:00:04.466Z,9.60
2019-03-27T02:02:52.635Z,9.33
2019-03-27T02:05:40.664Z,10.23
2019-03-27T02:08:28.785Z,10.27
2019-03-27T02:11:17.102Z,9.83
2019-03-27T02:14:05.148Z,10.20
2019-03-27T02:16:52.949Z,10.03
2019-03-27T02:19:41.302Z,9.97
2019-03-27T02:22:29.506Z,10.77
2019-03-27T02:25:17.641Z,10.47
2019-03-27T02:28:05.527Z,10.20
2019-03-27T02:30:54.067Z,11.10
2019-03-27T02:33:42.516Z,11.07
2019-03-27T02:36:30.989Z,10.33
2019-03-27T02:39:19.066Z,11.00
2019-03-27T02:42:07.422Z,11.33
2019-03-27T02:44:55.985Z,11.67
2019-03-27T02:47:44.188Z,10.20
2019-03-27T02:50:32.300Z,10.63
2019-03-27T02:53:20.631Z,10.50
2019-03-27T02:56:08.691Z,10.50
2019-03-27T02:58:56.686Z,10.70
2019-03-27T03:01:47.831Z,9.87
2019-03-27T03:04:34.639Z,10.47
2019-03-27T03:07:22.489Z,10.80
2019-03-27T03:10:11.430Z,10.40
2019-03-27T03:12:59.539Z,10.40
2019-03-27T03:15:47.695Z,10.80
2019-03-27T03:18:35.880Z,10.03
2019-03-27T03:21:24.108Z,10.57
2019-03-27T03:24:12.155Z,10.27
2019-03-27T03:27:00.347Z,10.57
2019-03-27T03:29:48.740Z,10.47
2019-03-27T03:32:37.024Z,11.50
2019-03-27T03:35:25.243Z,11.70
2019-03-27T03:38:13.241Z,11.63
2019-03-27T03:41:02.609Z,11.43
2019-03-27T03:43:50.826Z,12.10
2019-03-27T03:46:39.065Z,11.77
2019-03-27T03:49:27.140Z,10.83
2019-03-27T03:52:15.813Z,10.87
2019-03-27T03:55:04.714Z,11.03
2019-03-27T03:57:52.400Z,11.90
2019-03-27T04:00:40.617Z,11.30
2019-03-27T04:03:30.471Z,11.97
2019-03-27T04:06:18.636Z,10.77
2019-03-27T04:09:07.163Z,10.97
2019-03-27T04:11:55.063Z,11.47
2019-03-27T04:14:42.990Z,11.60
2019-03-27T04:17:30.884Z,12.07
2019-03-27T04:20:19.390Z,12.00
2019-03-27T04:23:07.056Z,11.37
2019-03-27T04:26:09.066Z,12.13
2019-03-27T04:28:44.783Z,11.93
2019-03-27T04:31:33.090Z,11.20
2019-03-27T04:34:20.832Z,11.37
2019-03-27T04:37:08.803Z,12.33
2019-03-27T04:39:57.306Z,11.87
2019-03-27T04:42:45.357Z,11.67
2019-03-27T04:45:33.096Z,11.67
2019-03-27T04:48:21.631Z,12.33
2019-03-27T04:51:09.997Z,12.57
2019-03-27T04:53:58.088Z,12.87
2019-03-27T04:56:46.044Z,12.00
2019-03-27T04:59:34.117Z,12.03
2019-03-27T05:02:21.801Z,12.20
2019-03-27T05:05:09.967Z,12.93
2019-03-27T05:07:58.554Z,12.40
2019-03-27T05:10:46.510Z,12.83
2019-03-27T05:13:34.635Z,13.00
2019-03-27T05:16:22.822Z,13.20
2019-03-27T05:19:11.358Z,12.97
2019-03-27T05:21:59.629Z,12.87
2019-03-27T05:24:47.877Z,14.00
2019-03-27T05:27:36.618Z,13.47
2019-03-27T05:30:31.178Z,12.90
2019-03-27T05:33:19.386Z,13.90
2019-03-27T05:36:07.630Z,14.30
2019-03-27T05:38:55.606Z,14.10
2019-03-27T05:41:43.869Z,13.10
2019-03-27T05:44:32.047Z,13.07
2019-03-27T05:47:20.104Z,14.73
2019-03-27T05:50:08.164Z,13.67
2019-03-27T05:52:56.214Z,14.70
2019-03-27T05:55:44.315Z,13.53
2019-03-27T05:58:33.009Z,13.67
2019-03-27T06:01:21.266Z,15.23
2019-03-27T06:04:09.338Z,14.77
2019-03-27T06:06:57.602Z,14.80
2019-03-27T06:09:45.609Z,13.43
2019-03-27T06:12:34.130Z,13.93
2019-03-27T06:15:22.627Z,14.13
2019-03-27T06:18:13.327Z,14.17
2019-03-27T06:21:00.608Z,14.63
2019-03-27T06:23:48.884Z,13.93
2019-03-27T06:26:37.592Z,14.07
2019-03-27T06:29:25.392Z,14.60
2019-03-27T06:32:13.036Z,15.10
2019-03-27T06:35:01.421Z,15.73
2019-03-27T06:37:50.116Z,15.00
2019-03-27T06:40:39.827Z,15.37
2019-03-27T06:43:28.014Z,13.90
2019-03-27T06:46:16.071Z,13.50
2019-03-27T06:49:04.304Z,15.47
2019-03-27T06:51:52.536Z,14.30
2019-03-27T06:54:40.782Z,14.67
2019-03-27T06:57:28.978Z,15.13
2019-03-27T07:00:17.422Z,14.30
2019-03-27T07:03:07.009Z,14.73
2019-03-27T07:05:55.216Z,15.80
2019-03-27T07:08:43.057Z,16.00
2019-03-27T07:11:31.574Z,15.87
2019-03-27T07:14:19.680Z,15.37
2019-03-27T07:17:08.143Z,14.83
2019-03-27T07:19:56.957Z,14.37
2019-03-27T07:22:45.166Z,15.03
2019-03-27T07:25:33.013Z,15.00
2019-03-27T07:28:21.338Z,15.50
2019-03-27T07:31:09.507Z,16.70
2019-03-27T07:33:57.825Z,16.20
2019-03-27T07:36:45.596Z,15.80
2019-03-27T07:39:33.789Z,16.47
2019-03-27T07:42:21.900Z,16.87
2019-03-27T07:45:10.049Z,16.20
2019-03-27T07:47:58.147Z,16.53
2019-03-27T07:50:46.905Z,15.93
2019-03-27T07:53:35.082Z,16.13
2019-03-27T07:56:23.362Z,15.83
2019-03-27T07:59:11.642Z,14.57
2019-03-27T08:01:59.980Z,16.77
2019-03-27T08:04:48.700Z,17.10
2019-03-27T08:07:36.560Z,16.87
2019-03-27T08:10:25.405Z,16.07
2019-03-27T08:13:13.757Z,16.90
2019-03-27T08:16:02.033Z,18.27
2019-03-27T08:18:50.138Z,17.23
2019-03-27T08:21:38.057Z,16.87
2019-03-27T08:24:26.107Z,16.70
2019-03-27T08:27:14.674Z,16.77
2019-03-27T08:30:03.197Z,17.57
2019-03-27T08:32:50.936Z,16.67
2019-03-27T08:35:39.279Z,17.37
2019-03-27T08:38:27.239Z,17.10
2019-03-27T08:41:15.566Z,17.37
2019-03-27T08:44:03.381Z,16.57
2019-03-27T08:46:51.649Z,16.90
2019-03-27T08:49:40.077Z,18.10
2019-03-27T08:52:28.710Z,16.67
2019-03-27T08:55:17.084Z,15.57
2019-03-27T08:58:05.433Z,17.13
2019-03-27T09:00:54.406Z,16.07
2019-03-27T09:03:42.758Z,16.97
2019-03-27T09:06:33.851Z,16.33
2019-03-27T09:09:20.958Z,16.87
2019-03-27T09:12:08.870Z,17.23
2019-03-27T09:14:57.073Z,16.60
2019-03-27T09:17:45.103Z,16.50
2019-03-27T09:20:33.040Z,16.33
2019-03-27T09:23:21.270Z,15.73
2019-03-27T09:26:09.399Z,16.00
2019-03-27T09:28:57.587Z,15.20
2019-03-27T09:31:45.743Z,15.13
2019-03-27T09:34:34.265Z,16.67
2019-03-27T09:37:22.283Z,17.00
2019-03-27T09:40:11.482Z,15.93
2019-03-27T09:42:59.896Z,15.90
2019-03-27T09:45:47.729Z,15.53
2019-03-27T09:48:35.870Z,15.40
2019-03-27T09:51:24.421Z,15.30
2019-03-27T09:54:12.976Z,15.57
2019-03-27T09:57:01.899Z,16.23
2019-03-27T09:59:49.581Z,14.97
2019-03-27T10:02:37.603Z,16.13
2019-03-27T10:05:25.618Z,15.00
2019-03-27T10:08:13.960Z,14.53
2019-03-27T10:11:01.926Z,15.70
2019-03-27T10:13:50.227Z,14.30
2019-03-27T10:16:38.007Z,13.83
2019-03-27T10:19:26.430Z,12.60
2019-03-27T10:22:15.135Z,13.40
2019-03-27T10:25:03.631Z,14.73
2019-03-27T10:27:51.800Z,12.47
2019-03-27T10:30:39.842Z,12.70
2019-03-27T10:33:28.376Z,13.07
2019-03-27T10:36:16.653Z,13.33
2019-03-27T10:39:06.668Z,12.77
2019-03-27T10:41:54.740Z,12.47
2019-03-27T10:44:43.134Z,13.87
2019-03-27T10:47:31.296Z,12.67
2019-03-27T10:50:19.421Z,13.90
2019-03-27T10:53:07.895Z,13.47
2019-03-27T10:55:55.885Z,12.23
2019-03-27T10:58:43.916Z,12.00
2019-03-27T11:01:32.334Z,11.10
2019-03-27T11:04:20.258Z,11.47
2019-03-27T11:07:08.846Z,11.10
2019-03-27T11:09:56.790Z,10.23
2019-03-27T11:12:44.655Z,9.60
2019-03-27T11:15:32.790Z,9.03
2019-03-27T11:18:20.975Z,8.30
2019-03-27T11:21:09.357Z,8.43
2019-03-27T11:23:57.391Z,7.67
2019-03-27T11:26:45.646Z,6.20
2019-03-27T11:29:34.053Z,6.87
2019-03-27T11:32:22.840Z,6.90
2019-03-27T11:35:10.969Z,5.80
2019-03-27T11:37:59.129Z,6.80
2019-03-27T11:40:47.233Z,6.10
2019-03-27T11:43:35.156Z,6.47
2019-03-27T11:46:23.414Z,6.57
2019-03-27T11:49:11.467Z,6.60
2019-03-27T11:51:59.740Z,5.10
2019-03-27T11:54:47.890Z,5.53
2019-03-27T11:57:35.705Z,5.97
2019-03-27T12:00:23.881Z,5.60
2019-03-27T12:03:11.871Z,6.03
2019-03-27T12:05:59.798Z,5.87
2019-03-27T12:08:50.639Z,5.50
2019-03-27T12:11:38.070Z,5.73
2019-03-27T12:14:26.303Z,5.20
2019-03-27T12:17:14.551Z,5.07
2019-03-27T12:20:02.551Z,6.10
2019-03-27T12:22:57.676Z,4.80
2019-03-27T12:25:40.067Z,5.30
2019-03-27T12:28:27.995Z,5.43
2019-03-27T12:31:15.790Z,6.03
2019-03-27T12:34:04.228Z,6.50
2019-03-27T12:36:52.591Z,6.00
2019-03-27T12:39:41.231Z,5.97
2019-03-27T12:42:29.848Z,6.67
2019-03-27T12:45:18.030Z,5.80
2019-03-27T12:48:07.055Z,6.50
2019-03-27T12:50:55.082Z,5.27
2019-03-27T12:53:43.461Z,6.47
2019-03-27T12:56:31.203Z,5.93
2019-03-27T12:59:19.651Z,5.83
2019-03-27T13:02:08.235Z,6.60
2019-03-27T13:04:56.308Z,5.20
2019-03-27T13:07:49.949Z,6.40
2019-03-27T13:10:34.092Z,5.40
2019-03-27T13:13:21.899Z,5.23
2019-03-27T13:16:10.073Z,5.97
2019-03-27T13:18:58.075Z,5.37
2019-03-27T13:21:46.240Z,6.23
2019-03-27T13:24:34.572Z,5.77
2019-03-27T13:27:23.014Z,6.50
2019-03-27T13:30:11.930Z,5.00
2019-03-27T13:32:59.835Z,6.37
2019-03-27T13:35:48.048Z,6.40
2019-03-27T13:38:36.189Z,5.70
2019-03-27T13:41:24.491Z,6.17
2019-03-27T13:44:12.491Z,6.13
2019-03-27T13:47:00.977Z,5.97
2019-03-27T13:49:49.314Z,6.10
2019-03-27T13:52:37.326Z,5.73
2019-03-27T13:55:25.982Z,6.33
2019-03-27T13:58:14.158Z,6.30
2019-03-27T14:01:02.296Z,5.40
2019-03-27T14:03:50.633Z,5.90
2019-03-27T14:06:39.062Z,5.47
2019-03-27T14:09:27.207Z,5.20
2019-03-27T14:12:15.939Z,4.90
2019-03-27T14:15:04.976Z,5.67
2019-03-27T14:17:53.372Z,5.40
2019-03-27T14:20:41.779Z,4.73
2019-03-27T14:23:29.844Z,5.17
2019-03-27T14:26:18.459Z,5.50
2019-03-27T14:29:08.111Z,5.37
2019-03-27T14:31:55.727Z,5.20
2019-03-27T14:34:43.802Z,4.27
2019-03-27T14:37:31.495Z,4.90
2019-03-27T14:40:19.461Z,4.53
2019-03-27T14:43:07.432Z,4.27
2019-03-27T14:45:55.745Z,4.63
2019-03-27T14:48:44.075Z,5.00
2019-03-27T14:51:32.465Z,4.90
2019-03-27T14:54:20.954Z,4.80
2019-03-27T14:57:09.204Z,4.97
2019-03-27T14:59:57.440Z,4.80
2019-03-27T15:02:45.850Z,4.57
2019-03-27T15:05:33.924Z,4.60
2019-03-27T15:08:22.424Z,5.10
2019-03-27T15:11:10.469Z,5.20
2019-03-27T15:13:58.480Z,5.57
2019-03-27T15:16:46.424Z,4.80
2019-03-27T15:19:34.457Z,4.60
2019-03-27T15:22:22.994Z,4.83
2019-03-27T15:25:11.063Z,4.43
2019-03-27T15:27:59.166Z,4.60
2019-03-27T15:30:47.160Z,4.97
2019-03-27T15:33:35.392Z,4.60
2019-03-27T15:36:24.274Z,4.87
2019-03-27T15:39:12.702Z,3.77
2019-03-27T15:42:00.979Z,4.30
2019-03-27T15:44:50.008Z,4.90
2019-03-27T15:47:38.446Z,4.17
2019-03-27T15:50:26.800Z,4.53
2019-03-27T15:53:14.966Z,4.50
2019-03-27T15:56:02.895Z,4.67
2019-03-27T15:58:51.299Z,4.80
2019-03-27T16:01:39.751Z,4.47
2019-03-27T16:04:28.571Z,4.30
2019-03-27T16:07:16.269Z,5.07
2019-03-27T16:10:05.157Z,4.53
2019-03-27T16:12:53.184Z,4.40
2019-03-27T16:15:41.324Z,4.77
2019-03-27T16:18:29.018Z,4.30
2019-03-27T16:21:17.335Z,4.90
2019-03-27T16:24:06.829Z,4.97
2019-03-27T16:27:04.326Z,5.13
2019-03-27T16:29:45.093Z,4.20
2019-03-27T16:32:33.279Z,4.00
2019-03-27T16:35:21.591Z,4.40
2019-03-27T16:38:10.038Z,4.50
2019-03-27T16:40:58.101Z,4.70
2019-03-27T16:43:46.833Z,4.43
2019-03-27T16:46:34.820Z,4.57
2019-03-27T16:49:22.889Z,4.40
2019-03-27T16:52:11.133Z,4.60
2019-03-27T16:54:59.249Z,4.20
2019-03-27T16:57:47.310Z,4.17
2019-03-27T17:00:35.687Z,4.70
2019-03-27T17:03:23.982Z,4.23
2019-03-27T17:06:11.666Z,4.07
2019-03-27T17:08:59.279Z,4.13
2019-03-27T17:11:47.627Z,4.57
2019-03-27T17:14:36.077Z,4.20
2019-03-27T17:17:24.275Z,5.10
2019-03-27T17:20:12.854Z,4.23
2019-03-27T17:23:00.875Z,4.40
2019-03-27T17:25:48.978Z,4.33
2019-03-27T17:28:37.320Z,3.97
2019-03-27T17:31:25.424Z,4.70
2019-03-27T17:34:14.009Z,4.80
2019-03-27T17:37:01.969Z,5.30
2019-03-27T17:39:50.178Z,4.17
2019-03-27T17:42:38.383Z,4.07
2019-03-27T17:45:26.626Z,4.40
2019-03-27T17:48:14.865Z,4.03
2019-03-27T17:51:03.349Z,3.87
2019-03-27T17:53:51.866Z,4.90
2019-03-27T17:56:40.229Z,4.53
2019-03-27T17:59:28.461Z,4.30
2019-03-27T18:02:16.600Z,4.70
2019-03-27T18:05:05.086Z,4.40
2019-03-27T18:07:53.272Z,4.23
2019-03-27T18:10:41.284Z,4.27
2019-03-27T18:13:29.399Z,4.40
2019-03-27T18:16:17.521Z,4.27
2019-03-27T18:19:06.097Z,4.57
2019-03-27T18:22:06.674Z,5.37
2019-03-27T18:24:43.833Z,4.07
2019-03-27T18:27:31.444Z,4.10
2019-03-27T18:30:19.510Z,4.57
2019-03-27T18:33:07.716Z,4.70
2019-03-27T18:35:55.764Z,4.07
2019-03-27T18:38:45.894Z,4.03
2019-03-27T18:41:33.149Z,4.43
2019-03-27T18:44:20.911Z,4.37
2019-03-27T18:47:09.278Z,4.30
2019-03-27T18:49:57.534Z,4.10
2019-03-27T18:52:45.847Z,4.40
2019-03-27T18:55:34.222Z,3.97
2019-03-27T18:58:22.180Z,4.07
2019-03-27T19:01:10.162Z,3.97
2019-03-27T19:03:58.051Z,3.83
2019-03-27T19:06:46.409Z,4.23
2019-03-27T19:09:34.761Z,4.07
2019-03-27T19:12:23.091Z,4.10
2019-03-27T19:15:11.382Z,4.37
2019-03-27T19:18:00.442Z,4.13
2019-03-27T19:20:48.624Z,4.43
2019-03-27T19:23:36.711Z,4.57
2019-03-27T19:26:25.184Z,4.97
2019-03-27T19:29:13.728Z,5.20
2019-03-27T19:32:02.506Z,4.60
2019-03-27T19:34:51.306Z,4.83
2019-03-27T19:37:39.815Z,4.33
2019-03-27T19:40:28.065Z,5.07
2019-03-27T19:43:15.993Z,5.30
2019-03-27T19:46:04.514Z,5.00
2019-03-27T19:48:52.846Z,5.30
2019-03-27T19:51:41.282Z,5.57
2019-03-27T19:54:29.416Z,5.40
2019-03-27T19:57:17.661Z,4.60
2019-03-27T20:00:07.664Z,4.73
2019-03-27T20:02:55.714Z,5.07
2019-03-27T20:05:43.988Z,5.10
2019-03-27T20:08:31.986Z,5.47
2019-03-27T20:11:20.217Z,5.17
2019-03-27T20:14:08.241Z,5.20
2019-03-27T20:16:56.517Z,5.40
2019-03-27T20:19:44.812Z,5.00
2019-03-27T20:22:32.609Z,5.33
2019-03-27T20:25:20.889Z,5.50
2019-03-27T20:28:09.288Z,5.83
2019-03-27T20:30:57.520Z,5.07
2019-03-27T20:33:46.085Z,5.57
2019-03-27T20:36:34.616Z,5.57
2019-03-27T20:39:22.432Z,5.77
2019-03-27T20:42:10.469Z,6.20
2019-03-27T20:44:58.563Z,5.27
2019-03-27T20:47:46.382Z,5.90
2019-03-27T20:50:34.662Z,5.73
2019-03-27T20:53:22.727Z,5.47
2019-03-27T20:56:11.019Z,5.97
2019-03-27T20:59:01.497Z,5.47
2019-03-27T21:01:50.157Z,5.43
2019-03-27T21:04:38.172Z,5.80
2019-03-27T21:07:25.960Z,4.83
2019-03-27T21:10:14.477Z,5.53
2019-03-27T21:13:02.692Z,5.50
2019-03-27T21:15:50.740Z,5.83
2019-03-27T21:18:38.734Z,5.87
2019-03-27T21:21:27.134Z,5.63
2019-03-27T21:24:15.320Z,5.33
2019-03-27T21:27:03.229Z,5.53
2019-03-27T21:29:51.436Z,6.20
2019-03-27T21:32:39.610Z,6.00
2019-03-27T21:35:27.679Z,5.73
2019-03-27T21:38:15.663Z,5.97
2019-03-27T21:41:03.932Z,5.40
2019-03-27T21:43:52.000Z,5.23
2019-03-27T21:46:40.341Z,5.40
2019-03-27T21:49:28.829Z,5.67
2019-03-27T21:52:16.909Z,5.40
2019-03-27T21:55:05.120Z,5.70
2019-03-27T21:57:53.296Z,5.80
2019-03-27T22:00:41.884Z,5.83
2019-03-27T22:03:29.892Z,6.20
2019-03-27T22:06:17.878Z,5.63
2019-03-27T22:09:07.329Z,5.73
2019-03-27T22:11:55.612Z,5.60
2019-03-27T22:14:44.015Z,5.73
2019-03-27T22:17:31.990Z,6.73
2019-03-27T22:20:19.729Z,6.23
2019-03-27T22:23:07.892Z,6.43
2019-03-27T22:25:56.316Z,6.23
2019-03-27T22:28:44.680Z,6.10
2019-03-27T22:31:33.083Z,6.50
2019-03-27T22:34:21.082Z,6.43
2019-03-27T22:37:09.262Z,6.37
2019-03-27T22:39:57.569Z,6.23
2019-03-27T22:42:45.736Z,6.17
2019-03-27T22:45:34.104Z,6.70
2019-03-27T22:48:22.227Z,6.67
2019-03-27T22:51:09.868Z,6.40
2019-03-27T22:53:57.894Z,6.70
2019-03-27T22:56:46.215Z,6.37
2019-03-27T22:59:34.466Z,6.93
2019-03-27T23:02:22.711Z,6.70
2019-03-27T23:05:10.876Z,6.97
2019-03-27T23:07:59.325Z,7.40
2019-03-27T23:10:47.607Z,7.30
2019-03-27T23:13:36.189Z,7.03
2019-03-27T23:16:24.592Z,6.90
2019-03-27T23:19:12.891Z,7.13
2019-03-27T23:22:00.958Z,6.67
2019-03-27T23:24:48.806Z,6.60
2019-03-27T23:27:37.422Z,7.10
2019-03-27T23:30:25.574Z,6.97
2019-03-27T23:33:14.008Z,6.93
2019-03-27T23:36:01.784Z,6.73
2019-03-27T23:38:50.529Z,6.90
2019-03-27T23:41:38.765Z,6.30
2019-03-27T23:44:26.666Z,8.00
2019-03-27T23:47:14.598Z,7.70
2019-03-27T23:50:03.034Z,7.20
2019-03-27T23:52:51.188Z,7.53
2019-03-27T23:55:39.105Z,8.60
2019-03-27T23:58:27.074Z,7.13
